createdAt,value
2018-04-11T00:00:35.962Z,11.50
2018-04-11T00:03:05.418Z,10.73
2018-04-11T00:05:35.644Z,11.30
2018-04-11T00:08:06.127Z,12.00
2018-04-11T00:10:35.285Z,11.77
2018-04-11T00:13:05.515Z,13.97
2018-04-11T00:15:35.744Z,13.30
2018-04-11T00:18:05.212Z,12.87
2018-04-11T00:20:34.676Z,11.80
2018-04-11T00:23:05.656Z,12.00
2018-04-11T00:25:35.132Z,12.97
2018-04-11T00:28:04.609Z,12.80
2018-04-11T00:30:34.082Z,14.27
2018-04-11T00:33:03.524Z,13.17
2018-04-11T00:35:32.983Z,14.70
2018-04-11T00:38:02.646Z,13.17
2018-04-11T00:40:32.870Z,12.70
2018-04-11T00:43:03.098Z,13.57
2018-04-11T00:45:32.576Z,12.83
2018-04-11T00:48:02.031Z,15.23
2018-04-11T00:50:31.496Z,13.77
2018-04-11T00:53:12.203Z,13.53
2018-04-11T00:55:42.146Z,12.47
2018-04-11T00:58:11.620Z,12.70
2018-04-11T01:00:41.067Z,14.23
2018-04-11T01:03:10.531Z,13.87
2018-04-11T01:05:40.041Z,12.57
2018-04-11T01:08:09.499Z,14.47
2018-04-11T01:10:38.971Z,13.40
2018-04-11T01:13:09.190Z,13.90
2018-04-11T01:15:39.435Z,14.30
2018-04-11T01:18:09.654Z,12.90
2018-04-11T01:20:38.846Z,13.60
2018-04-11T01:23:08.649Z,13.30
2018-04-11T01:25:38.109Z,13.50
2018-04-11T01:28:07.559Z,14.30
2018-04-11T01:30:37.039Z,14.00
2018-04-11T01:33:08.002Z,14.10
2018-04-11T01:35:38.247Z,13.13
2018-04-11T01:38:08.139Z,14.03
2018-04-11T01:40:37.263Z,14.33
2018-04-11T01:43:06.486Z,13.83
2018-04-11T01:45:36.393Z,13.30
2018-04-11T01:48:05.850Z,14.30
2018-04-11T01:50:35.311Z,15.13
2018-04-11T01:53:04.789Z,14.23
2018-04-11T01:55:34.234Z,14.90
2018-04-11T01:58:03.027Z,14.53
2018-04-11T02:00:32.498Z,14.30
2018-04-11T02:03:02.726Z,15.40
2018-04-11T02:05:33.086Z,14.57
2018-04-11T02:08:02.552Z,13.90
2018-04-11T02:10:32.047Z,14.30
2018-04-11T02:13:01.495Z,14.37
2018-04-11T02:15:30.715Z,15.50
2018-04-11T02:18:00.710Z,15.33
2018-04-11T02:20:30.191Z,16.90
2018-04-11T02:22:59.649Z,16.20
2018-04-11T02:25:29.110Z,15.00
2018-04-11T02:27:59.489Z,15.57
2018-04-11T02:30:28.920Z,15.53
2018-04-11T02:32:58.389Z,14.17
2018-04-11T02:35:28.614Z,16.83
2018-04-11T02:37:58.839Z,14.27
2018-04-11T02:40:28.303Z,15.47
2018-04-11T02:42:57.760Z,15.80
2018-04-11T02:45:27.210Z,15.07
2018-04-11T02:47:56.677Z,15.67
2018-04-11T02:50:26.122Z,15.57
2018-04-11T02:52:56.366Z,17.70
2018-04-11T02:55:25.828Z,15.80
2018-04-11T02:57:55.278Z,17.47
2018-04-11T03:00:25.517Z,16.03
2018-04-11T03:02:54.968Z,16.50
2018-04-11T03:05:24.428Z,15.70
2018-04-11T03:07:53.575Z,16.67
2018-04-11T03:10:24.002Z,16.87
2018-04-11T03:12:53.475Z,17.87
2018-04-11T03:15:22.939Z,16.80
2018-04-11T03:17:53.199Z,15.50
2018-04-11T03:20:22.665Z,15.73
2018-04-11T03:22:52.148Z,15.37
2018-04-11T03:25:21.608Z,16.90
2018-04-11T03:27:51.857Z,16.60
2018-04-11T03:30:22.130Z,15.73
2018-04-11T03:32:51.598Z,17.97
2018-04-11T03:35:21.178Z,14.63
2018-04-11T03:37:50.640Z,14.63
2018-04-11T03:40:20.875Z,16.07
2018-04-11T03:42:51.097Z,17.03
2018-04-11T03:45:20.567Z,14.53
2018-04-11T03:47:50.030Z,15.50
2018-04-11T03:50:19.310Z,14.80
2018-04-11T03:52:48.771Z,14.93
2018-04-11T03:55:19.042Z,16.37
2018-04-11T03:57:48.529Z,15.47
2018-04-11T04:00:18.773Z,16.23
2018-04-11T04:02:48.987Z,17.57
2018-04-11T04:05:19.380Z,15.90
2018-04-11T04:07:48.857Z,16.03
2018-04-11T04:10:18.496Z,17.57
2018-04-11T04:12:47.955Z,17.73
2018-04-11T04:15:29.238Z,17.60
2018-04-11T04:18:09.784Z,16.70
2018-04-11T04:20:38.967Z,17.43
2018-04-11T04:23:10.130Z,18.30
2018-04-11T04:25:39.689Z,16.17
2018-04-11T04:28:09.135Z,16.30
2018-04-11T04:30:38.579Z,16.20
2018-04-11T04:33:08.577Z,15.80
2018-04-11T04:35:38.037Z,17.73
2018-04-11T04:38:07.504Z,16.57
2018-04-11T04:40:36.963Z,16.57
2018-04-11T04:43:06.430Z,15.03
2018-04-11T04:45:35.896Z,16.50
2018-04-11T04:48:06.123Z,18.03
2018-04-11T04:50:36.360Z,17.80
2018-04-11T04:53:06.591Z,18.70
2018-04-11T04:55:36.815Z,17.63
2018-04-11T04:58:07.051Z,16.80
2018-04-11T05:00:37.279Z,16.97
2018-04-11T05:03:06.729Z,17.50
2018-04-11T05:05:35.971Z,17.50
2018-04-11T05:08:05.431Z,17.20
2018-04-11T05:10:35.670Z,18.33
2018-04-11T05:13:05.906Z,19.07
2018-04-11T05:15:36.102Z,18.30
2018-04-11T05:18:05.606Z,18.77
2018-04-11T05:20:35.082Z,17.53
2018-04-11T05:23:04.539Z,16.73
2018-04-11T05:25:33.856Z,16.53
2018-04-11T05:28:03.314Z,17.23
2018-04-11T05:30:33.540Z,15.27
2018-04-11T05:33:03.802Z,57.23
2018-04-11T05:35:33.068Z,26.80
2018-04-11T05:38:03.016Z,29.17
2018-04-11T05:40:33.034Z,44.07
2018-04-11T05:43:02.343Z,22.43
2018-04-11T05:45:31.808Z,31.93
2018-04-11T05:48:01.365Z,27.70
2018-04-11T05:50:31.018Z,29.50
2018-04-11T05:53:01.306Z,33.83
2018-04-11T05:55:30.952Z,37.47
2018-04-11T05:58:00.425Z,42.00
2018-04-11T06:00:29.884Z,31.03
2018-04-11T06:02:59.620Z,28.53
2018-04-11T06:05:29.068Z,29.13
2018-04-11T06:07:58.523Z,23.17
2018-04-11T06:10:27.973Z,23.77
2018-04-11T06:12:58.219Z,25.13
2018-04-11T06:15:27.681Z,24.33
2018-04-11T06:17:57.893Z,25.27
2018-04-11T06:20:27.403Z,23.47
2018-04-11T06:22:56.904Z,21.30
2018-04-11T06:25:26.522Z,26.37
2018-04-11T06:27:57.051Z,22.73
2018-04-11T06:30:26.687Z,24.13
2018-04-11T06:32:56.146Z,23.23
2018-04-11T06:35:25.843Z,22.13
2018-04-11T06:37:56.973Z,23.70
2018-04-11T06:40:27.207Z,25.57
2018-04-11T06:42:57.443Z,25.47
2018-04-11T06:45:27.671Z,24.53
2018-04-11T06:47:57.889Z,28.23
2018-04-11T06:50:27.842Z,27.60
2018-04-11T06:52:58.069Z,27.97
2018-04-11T06:55:28.354Z,31.40
2018-04-11T06:57:57.755Z,28.60
2018-04-11T07:00:26.975Z,25.13
2018-04-11T07:02:56.513Z,25.77
2018-04-11T07:05:25.963Z,24.33
2018-04-11T07:07:55.433Z,25.63
2018-04-11T07:10:24.958Z,28.53
2018-04-11T07:12:54.439Z,28.43
2018-04-11T07:15:23.999Z,28.50
2018-04-11T07:17:53.478Z,29.50
2018-04-11T07:20:22.698Z,33.90
2018-04-11T07:22:52.436Z,30.93
2018-04-11T07:25:22.021Z,34.77
2018-04-11T07:27:51.839Z,35.30
2018-04-11T07:30:22.086Z,34.63
2018-04-11T07:32:51.549Z,34.27
2018-04-11T07:35:21.057Z,31.70
2018-04-11T07:37:51.064Z,32.27
2018-04-11T07:40:20.555Z,32.07
2018-04-11T07:42:50.997Z,32.70
2018-04-11T07:45:21.263Z,30.67
2018-04-11T07:47:50.703Z,32.97
2018-04-11T07:50:20.177Z,29.93
2018-04-11T07:52:49.651Z,32.70
2018-04-11T07:55:20.117Z,29.03
2018-04-11T07:57:50.346Z,27.83
2018-04-11T08:00:20.583Z,30.77
2018-04-11T08:02:50.820Z,28.23
2018-04-11T08:05:20.828Z,27.73
2018-04-11T08:07:50.385Z,29.27
2018-04-11T08:10:20.011Z,30.33
2018-04-11T08:12:49.487Z,27.53
2018-04-11T08:15:18.968Z,27.80
2018-04-11T08:17:48.485Z,30.90
2018-04-11T08:20:18.091Z,29.47
2018-04-11T08:22:47.287Z,28.53
2018-04-11T08:25:16.759Z,32.17
2018-04-11T08:27:45.655Z,32.50
2018-04-11T08:30:15.111Z,30.20
2018-04-11T08:32:45.115Z,30.87
2018-04-11T08:35:14.582Z,32.50
2018-04-11T08:37:44.219Z,29.33
2018-04-11T08:40:13.691Z,29.07
2018-04-11T08:42:44.169Z,29.47
2018-04-11T08:45:13.698Z,31.70
2018-04-11T08:47:43.135Z,30.67
2018-04-11T08:50:12.671Z,32.03
2018-04-11T08:52:42.145Z,31.70
2018-04-11T08:55:11.675Z,31.10
2018-04-11T08:57:41.284Z,31.37
2018-04-11T09:00:10.719Z,32.40
2018-04-11T09:02:40.189Z,30.00
2018-04-11T09:05:10.188Z,30.63
2018-04-11T09:07:39.417Z,34.87
2018-04-11T09:10:09.638Z,29.80
2018-04-11T09:12:39.311Z,29.47
2018-04-11T09:15:08.746Z,27.13
2018-04-11T09:17:37.872Z,30.80
2018-04-11T09:20:07.343Z,31.87
2018-04-11T09:22:36.803Z,32.03
2018-04-11T09:25:06.261Z,29.10
2018-04-11T09:27:35.726Z,31.17
2018-04-11T09:30:05.180Z,33.50
2018-04-11T09:32:35.616Z,31.97
2018-04-11T09:35:05.278Z,28.63
2018-04-11T09:37:34.740Z,26.60
2018-04-11T09:40:04.320Z,30.17
2018-04-11T09:42:33.779Z,31.37
2018-04-11T09:45:03.699Z,30.50
2018-04-11T09:47:33.157Z,30.03
2018-04-11T09:50:02.291Z,32.53
2018-04-11T09:52:31.873Z,31.33
2018-04-11T09:55:02.073Z,28.70
2018-04-11T09:57:31.528Z,29.00
2018-04-11T10:00:01.216Z,26.30
2018-04-11T10:02:35.819Z,30.23
2018-04-11T10:05:04.929Z,31.40
2018-04-11T10:07:34.391Z,34.87
2018-04-11T10:10:04.343Z,34.13
2018-04-11T10:12:33.806Z,32.93
2018-04-11T10:15:04.040Z,36.63
2018-04-11T10:17:33.503Z,34.77
2018-04-11T10:20:03.081Z,41.87
2018-04-11T10:22:33.088Z,35.33
2018-04-11T10:25:03.098Z,37.77
2018-04-11T10:27:32.574Z,35.43
2018-04-11T10:30:02.092Z,38.00
2018-04-11T10:32:31.552Z,31.83
2018-04-11T10:35:01.037Z,31.87
2018-04-11T10:37:31.298Z,33.40
2018-04-11T10:40:01.256Z,32.10
2018-04-11T10:42:30.718Z,33.30
2018-04-11T10:45:00.193Z,33.70
2018-04-11T10:47:29.817Z,32.80
2018-04-11T10:49:59.816Z,31.23
2018-04-11T10:52:30.148Z,33.13
2018-04-11T10:54:59.911Z,32.50
2018-04-11T10:57:31.161Z,28.67
2018-04-11T11:00:01.044Z,31.00
2018-04-11T11:02:30.498Z,31.10
2018-04-11T11:05:00.051Z,31.47
2018-04-11T11:07:29.647Z,29.93
2018-04-11T11:09:58.587Z,31.53
2018-04-11T11:12:27.876Z,31.63
2018-04-11T11:14:57.373Z,28.90
2018-04-11T11:17:27.057Z,31.57
2018-04-11T11:20:02.491Z,29.43
2018-04-11T11:22:31.899Z,30.13
2018-04-11T11:25:01.791Z,31.60
2018-04-11T11:27:32.127Z,36.43
2018-04-11T11:30:01.781Z,33.33
2018-04-11T11:32:30.937Z,31.37
2018-04-11T11:35:01.030Z,32.50
2018-04-11T11:37:30.408Z,31.80
2018-04-11T11:39:59.807Z,34.23
2018-04-11T11:42:30.053Z,34.83
2018-04-11T11:44:59.554Z,34.77
2018-04-11T11:47:29.802Z,37.53
2018-04-11T11:49:59.290Z,33.20
2018-04-11T11:52:28.878Z,33.87
2018-04-11T11:54:58.448Z,35.73
2018-04-11T11:57:28.717Z,38.53
2018-04-11T11:59:59.112Z,36.70
2018-04-11T12:02:29.675Z,40.43
2018-04-11T12:04:58.970Z,34.07
2018-04-11T12:07:28.625Z,44.20
2018-04-11T12:09:58.161Z,45.67
2018-04-11T12:12:27.604Z,50.17
2018-04-11T12:14:58.634Z,45.03
2018-04-11T12:17:28.176Z,48.70
2018-04-11T12:19:57.619Z,45.43
2018-04-11T12:22:28.211Z,49.30
2018-04-11T12:24:57.673Z,49.37
2018-04-11T12:27:27.120Z,49.00
2018-04-11T12:29:56.590Z,56.73
2018-04-11T12:32:26.049Z,49.87
2018-04-11T12:34:55.503Z,53.87
2018-04-11T12:37:25.003Z,53.43
2018-04-11T12:39:54.638Z,55.27
2018-04-11T12:42:24.090Z,52.77
2018-04-11T12:44:54.383Z,55.47
2018-04-11T12:47:23.833Z,53.20
2018-04-11T12:49:53.289Z,52.40
2018-04-11T12:52:22.767Z,53.43
2018-04-11T12:54:52.233Z,47.93
2018-04-11T12:57:21.472Z,53.17
2018-04-11T12:59:50.968Z,51.93
2018-04-11T13:02:20.429Z,55.13
2018-04-11T13:04:50.677Z,50.20
2018-04-11T13:07:20.915Z,54.50
2018-04-11T13:09:52.251Z,48.43
2018-04-11T13:12:21.811Z,50.63
2018-04-11T13:14:51.074Z,54.17
2018-04-11T13:17:20.539Z,47.63
2018-04-11T13:19:50.017Z,51.77
2018-04-11T13:22:19.478Z,49.03
2018-04-11T13:24:48.970Z,50.50
2018-04-11T13:27:19.351Z,51.00
2018-04-11T13:29:48.839Z,48.10
2018-04-11T13:32:18.301Z,48.70
2018-04-11T13:34:47.774Z,46.07
2018-04-11T13:37:17.004Z,46.47
2018-04-11T13:39:46.476Z,47.87
2018-04-11T13:42:16.690Z,49.40
2018-04-11T13:44:46.238Z,46.20
2018-04-11T13:47:16.457Z,45.63
2018-04-11T13:49:46.687Z,42.23
2018-04-11T13:52:16.915Z,46.90
2018-04-11T13:54:47.160Z,49.17
2018-04-11T13:57:16.618Z,47.30
2018-04-11T13:59:46.077Z,45.30
2018-04-11T14:02:15.541Z,45.60
2018-04-11T14:04:44.767Z,46.00
2018-04-11T14:07:14.250Z,50.00
2018-04-11T14:09:44.237Z,46.13
2018-04-11T14:12:13.686Z,47.10
2018-04-11T14:14:43.922Z,48.83
2018-04-11T14:17:13.593Z,46.17
2018-04-11T14:19:43.052Z,47.33
2018-04-11T14:22:12.667Z,40.27
2018-04-11T14:24:42.081Z,46.70
2018-04-11T14:27:11.539Z,44.60
2018-04-11T14:29:40.768Z,45.73
2018-04-11T14:32:10.224Z,46.60
2018-04-11T14:34:39.719Z,43.17
2018-04-11T14:37:09.175Z,49.73
2018-04-11T14:39:39.414Z,47.27
2018-04-11T14:42:08.882Z,42.80
2018-04-11T14:44:38.108Z,47.27
2018-04-11T14:47:07.354Z,46.73
2018-04-11T14:49:37.567Z,44.87
2018-04-11T14:52:08.022Z,45.93
2018-04-11T14:54:38.242Z,43.47
2018-04-11T14:57:08.469Z,46.67
2018-04-11T14:59:37.930Z,45.87
2018-04-11T15:02:07.391Z,51.60
2018-04-11T15:04:36.864Z,48.73
2018-04-11T15:07:06.345Z,51.03
2018-04-11T15:09:36.574Z,53.90
2018-04-11T15:12:05.702Z,55.80
2018-04-11T15:14:36.027Z,55.03
2018-04-11T15:17:06.046Z,52.47
2018-04-11T15:19:35.282Z,51.57
2018-04-11T15:22:05.508Z,51.47
2018-04-11T15:24:35.739Z,51.50
2018-04-11T15:27:05.987Z,54.80
2018-04-11T15:29:36.225Z,47.00
2018-04-11T15:32:05.682Z,50.20
2018-04-11T15:34:35.159Z,55.57
2018-04-11T15:37:04.639Z,49.43
2018-04-11T15:39:34.082Z,46.27
2018-04-11T15:42:04.091Z,49.97
2018-04-11T15:44:33.537Z,53.00
2018-04-11T15:47:03.001Z,49.23
2018-04-11T15:49:32.465Z,51.60
2018-04-11T15:52:02.030Z,44.90
2018-04-11T15:54:31.484Z,51.03
2018-04-11T15:57:01.871Z,51.20
2018-04-11T15:59:31.299Z,47.43
2018-04-11T16:02:00.751Z,46.77
2018-04-11T16:04:31.107Z,49.80
2018-04-11T16:07:00.364Z,47.77
2018-04-11T16:09:30.637Z,46.73
2018-04-11T16:12:00.537Z,46.40
2018-04-11T16:14:31.518Z,48.30
2018-04-11T16:17:01.784Z,45.13
2018-04-11T16:19:31.994Z,44.23
2018-04-11T16:22:02.241Z,47.33
2018-04-11T16:24:31.691Z,48.13
2018-04-11T16:27:01.159Z,43.10
2018-04-11T16:29:31.612Z,43.97
2018-04-11T16:32:01.090Z,42.63
2018-04-11T16:34:30.600Z,42.07
2018-04-11T16:37:00.263Z,39.73
2018-04-11T16:39:29.721Z,40.63
2018-04-11T16:41:59.217Z,38.13
2018-04-11T16:44:28.704Z,37.30
2018-04-11T16:46:58.154Z,39.33
2018-04-11T16:49:27.624Z,34.97
2018-04-11T16:51:57.082Z,36.67
2018-04-11T16:54:26.535Z,35.17
2018-04-11T16:56:56.402Z,36.00
2018-04-11T16:59:26.626Z,35.83
2018-04-11T17:01:56.870Z,34.57
2018-04-11T17:04:26.865Z,38.37
2018-04-11T17:06:56.325Z,33.13
2018-04-11T17:09:25.803Z,34.00
2018-04-11T17:11:55.033Z,35.30
2018-04-11T17:14:25.011Z,33.17
2018-04-11T17:16:54.268Z,36.17
2018-04-11T17:19:23.480Z,36.77
2018-04-11T17:22:04.620Z,44.10
2018-04-11T17:24:45.199Z,45.70
2018-04-11T17:27:25.715Z,45.83
2018-04-11T17:30:06.179Z,43.07
2018-04-11T17:32:35.911Z,45.57
2018-04-11T17:35:05.027Z,39.57
2018-04-11T17:37:35.250Z,35.93
2018-04-11T17:40:04.056Z,43.07
2018-04-11T17:42:33.531Z,32.70
2018-04-11T17:45:02.750Z,35.17
2018-04-11T17:47:32.230Z,32.03
2018-04-11T17:50:01.475Z,36.30
2018-04-11T17:52:30.908Z,31.80
2018-04-11T17:55:00.547Z,31.90
2018-04-11T17:57:30.434Z,30.00
2018-04-11T18:00:00.077Z,33.87
2018-04-11T18:02:29.628Z,30.60
2018-04-11T18:04:59.094Z,32.90
2018-04-11T18:07:28.568Z,31.17
2018-04-11T18:09:58.251Z,32.70
2018-04-11T18:12:27.700Z,28.43
2018-04-11T18:14:57.941Z,31.67
2018-04-11T18:17:28.162Z,32.00
2018-04-11T18:19:58.395Z,29.77
2018-04-11T18:22:28.628Z,29.23
2018-04-11T18:24:58.879Z,31.30
2018-04-11T18:27:29.082Z,27.53
2018-04-11T18:29:58.567Z,29.33
2018-04-11T18:32:28.352Z,27.17
2018-04-11T18:34:57.818Z,25.27
2018-04-11T18:37:27.277Z,26.57
2018-04-11T18:39:57.723Z,28.60
2018-04-11T18:42:27.946Z,27.10
2018-04-11T18:44:58.191Z,29.87
2018-04-11T18:47:28.421Z,28.77
2018-04-11T18:49:58.669Z,25.53
2018-04-11T18:52:28.131Z,29.37
2018-04-11T18:54:57.605Z,30.73
2018-04-11T18:57:27.092Z,30.53
2018-04-11T18:59:57.355Z,29.93
2018-04-11T19:02:27.022Z,29.23
2018-04-11T19:04:56.463Z,29.87
2018-04-11T19:07:26.716Z,27.63
2018-04-11T19:09:56.851Z,26.27
2018-04-11T19:12:26.565Z,25.90
2018-04-11T19:14:57.651Z,27.07
2018-04-11T19:17:27.212Z,28.83
2018-04-11T19:19:57.446Z,29.37
2018-04-11T19:22:26.900Z,26.70
2018-04-11T19:24:56.967Z,26.33
2018-04-11T19:27:26.447Z,26.47
2018-04-11T19:29:57.242Z,28.40
2018-04-11T19:32:26.887Z,27.00
2018-04-11T19:34:57.133Z,28.90
2018-04-11T19:37:26.747Z,30.90
2018-04-11T19:39:56.196Z,28.13
2018-04-11T19:42:25.695Z,31.27
2018-04-11T19:44:55.710Z,29.70
2018-04-11T19:47:25.726Z,26.10
2018-04-11T19:49:55.768Z,30.50
2018-04-11T19:52:25.388Z,30.73
2018-04-11T19:54:55.833Z,25.67
2018-04-11T19:57:26.166Z,26.13
2018-04-11T19:59:55.695Z,25.93
2018-04-11T20:02:25.155Z,26.40
2018-04-11T20:04:54.339Z,27.03
2018-04-11T20:07:23.389Z,28.27
2018-04-11T20:09:53.105Z,24.00
2018-04-11T20:12:22.575Z,25.13
2018-04-11T20:14:52.576Z,24.90
2018-04-11T20:17:22.687Z,25.07
2018-04-11T20:19:52.647Z,24.97
2018-04-11T20:22:22.874Z,23.50
2018-04-11T20:24:52.303Z,26.77
2018-04-11T20:27:21.290Z,23.47
2018-04-11T20:29:52.249Z,30.33
2018-04-11T20:32:22.488Z,26.13
2018-04-11T20:34:52.715Z,28.30
2018-04-11T20:37:23.164Z,28.43
2018-04-11T20:39:52.346Z,26.30
2018-04-11T20:42:22.032Z,23.33
2018-04-11T20:44:52.267Z,24.60
2018-04-11T20:47:21.452Z,27.53
2018-04-11T20:49:50.948Z,29.30
2018-04-11T20:52:20.399Z,32.10
2018-04-11T20:54:49.869Z,30.87
2018-04-11T20:57:20.838Z,24.33
2018-04-11T20:59:51.078Z,25.37
2018-04-11T21:02:20.273Z,25.50
2018-04-11T21:04:50.531Z,28.20
2018-04-11T21:07:20.069Z,31.00
2018-04-11T21:09:49.600Z,27.53
2018-04-11T21:12:19.069Z,25.90
2018-04-11T21:14:49.304Z,25.67
2018-04-11T21:17:18.490Z,29.53
2018-04-11T21:19:47.954Z,26.50
2018-04-11T21:22:17.409Z,26.60
2018-04-11T21:24:46.871Z,27.80
2018-04-11T21:27:17.121Z,23.70
2018-04-11T21:29:46.578Z,27.80
2018-04-11T21:32:16.051Z,27.37
2018-04-11T21:34:45.520Z,25.60
2018-04-11T21:37:15.000Z,25.90
2018-04-11T21:39:44.583Z,23.60
2018-04-11T21:42:14.802Z,24.17
2018-04-11T21:44:43.988Z,23.40
2018-04-11T21:47:13.941Z,22.73
2018-04-11T21:49:43.118Z,21.63
2018-04-11T21:52:13.135Z,24.20
2018-04-11T21:54:42.568Z,26.57
2018-04-11T21:57:12.047Z,22.37
2018-04-11T21:59:41.335Z,21.67
2018-04-11T22:02:11.558Z,26.00
2018-04-11T22:04:41.800Z,25.07
2018-04-11T22:07:12.031Z,26.70
2018-04-11T22:09:42.274Z,26.43
2018-04-11T22:12:12.494Z,25.97
2018-04-11T22:14:42.036Z,27.93
2018-04-11T22:17:12.251Z,29.43
2018-04-11T22:19:41.775Z,25.30
2018-04-11T22:22:12.007Z,23.33
2018-04-11T22:24:41.266Z,24.87
2018-04-11T22:27:10.476Z,27.83
2018-04-11T22:29:40.046Z,28.60
2018-04-11T22:32:09.485Z,26.77
2018-04-11T22:34:38.939Z,27.80
2018-04-11T22:37:08.411Z,27.53
2018-04-11T22:39:38.642Z,25.67
2018-04-11T22:42:08.218Z,26.23
2018-04-11T22:44:37.682Z,28.90
2018-04-11T22:47:07.165Z,27.63
2018-04-11T22:49:36.360Z,25.00
2018-04-11T22:52:05.829Z,29.83
2018-04-11T22:54:36.058Z,31.63
2018-04-11T22:57:06.289Z,31.43
2018-04-11T22:59:36.279Z,30.33
2018-04-11T23:02:05.742Z,27.33
2018-04-11T23:04:34.984Z,32.97
2018-04-11T23:07:04.499Z,31.13
2018-04-11T23:09:33.729Z,34.53
2018-04-11T23:12:02.967Z,29.87
2018-04-11T23:14:32.975Z,31.60
2018-04-11T23:17:02.083Z,31.13
2018-04-11T23:19:31.310Z,30.23
2018-04-11T23:22:00.778Z,36.90
2018-04-11T23:24:29.991Z,30.73
2018-04-11T23:26:59.446Z,33.73
2018-04-11T23:29:28.905Z,32.17
2018-04-11T23:31:58.370Z,31.40
